sensor_id;sensor_type;location;lat;lon;timestamp;pressure;altitude;pressure_sealevel;temperature;humidity
47913;BME280;33676;51.006;17.180;2022-07-17T00:01:25;100953.03;;;11.04;80.65
47913;BME280;33676;51.006;17.180;2022-07-17T00:03:54;100953.29;;;11.03;80.59
47913;BME280;33676;51.006;17.180;2022-07-17T00:06:23;100950.59;;;10.99;80.72
47913;BME280;33676;51.006;17.180;2022-07-17T00:08:52;100951.08;;;10.96;80.70
47913;BME280;33676;51.006;17.180;2022-07-17T00:11:21;100955.31;;;10.93;80.81
47913;BME280;33676;51.006;17.180;2022-07-17T00:13:50;100951.14;;;10.91;80.82
47913;BME280;33676;51.006;17.180;2022-07-17T00:16:20;100952.53;;;10.86;80.84
47913;BME280;33676;51.006;17.180;2022-07-17T00:18:49;100955.35;;;10.83;80.91
47913;BME280;33676;51.006;17.180;2022-07-17T00:21:18;100957.94;;;10.79;80.70
47913;BME280;33676;51.006;17.180;2022-07-17T00:23:47;100958.34;;;10.75;80.88
47913;BME280;33676;51.006;17.180;2022-07-17T00:26:16;100957.14;;;10.72;80.88
47913;BME280;33676;51.006;17.180;2022-07-17T00:28:45;100963.35;;;10.71;81.07
47913;BME280;33676;51.006;17.180;2022-07-17T00:31:14;100964.03;;;10.69;81.10
47913;BME280;33676;51.006;17.180;2022-07-17T00:33:43;100971.34;;;10.67;81.25
47913;BME280;33676;51.006;17.180;2022-07-17T00:36:12;100972.19;;;10.65;81.19
47913;BME280;33676;51.006;17.180;2022-07-17T00:38:41;100970.30;;;10.61;81.11
47913;BME280;33676;51.006;17.180;2022-07-17T00:41:13;100970.63;;;10.59;81.24
47913;BME280;33676;51.006;17.180;2022-07-17T00:43:42;100973.15;;;10.58;81.37
47913;BME280;33676;51.006;17.180;2022-07-17T00:46:14;100970.83;;;10.56;81.30
47913;BME280;33676;51.006;17.180;2022-07-17T00:48:43;100974.52;;;10.53;81.39
47913;BME280;33676;51.006;17.180;2022-07-17T00:51:12;100975.14;;;10.51;81.37
47913;BME280;33676;51.006;17.180;2022-07-17T00:53:42;100973.16;;;10.50;81.43
47913;BME280;33676;51.006;17.180;2022-07-17T00:56:12;100973.46;;;10.48;81.38
47913;BME280;33676;51.006;17.180;2022-07-17T00:58:44;100975.86;;;10.46;81.50
47913;BME280;33676;51.006;17.180;2022-07-17T01:01:13;100973.17;;;10.44;81.53
47913;BME280;33676;51.006;17.180;2022-07-17T01:03:42;100978.33;;;10.43;81.52
47913;BME280;33676;51.006;17.180;2022-07-17T01:06:12;100978.26;;;10.41;81.58
47913;BME280;33676;51.006;17.180;2022-07-17T01:08:40;100980.00;;;10.39;81.62
47913;BME280;33676;51.006;17.180;2022-07-17T01:11:09;100978.31;;;10.39;81.67
47913;BME280;33676;51.006;17.180;2022-07-17T01:13:40;100983.13;;;10.37;81.71
47913;BME280;33676;51.006;17.180;2022-07-17T01:16:12;100989.68;;;10.36;81.64
47913;BME280;33676;51.006;17.180;2022-07-17T01:18:42;100987.39;;;10.34;81.68
47913;BME280;33676;51.006;17.180;2022-07-17T01:21:10;100988.71;;;10.32;81.73
47913;BME280;33676;51.006;17.180;2022-07-17T01:23:39;100988.16;;;10.30;81.82
47913;BME280;33676;51.006;17.180;2022-07-17T01:26:08;100990.03;;;10.27;81.87
47913;BME280;33676;51.006;17.180;2022-07-17T01:28:37;100988.90;;;10.26;81.89
47913;BME280;33676;51.006;17.180;2022-07-17T01:31:06;100990.40;;;10.24;81.99
47913;BME280;33676;51.006;17.180;2022-07-17T01:33:35;100989.66;;;10.23;82.02
47913;BME280;33676;51.006;17.180;2022-07-17T01:36:04;100988.91;;;10.21;82.00
47913;BME280;33676;51.006;17.180;2022-07-17T01:38:33;100988.05;;;10.20;82.13
47913;BME280;33676;51.006;17.180;2022-07-17T01:41:02;100989.96;;;10.21;82.14
47913;BME280;33676;51.006;17.180;2022-07-17T01:43:32;100989.76;;;10.21;82.15
47913;BME280;33676;51.006;17.180;2022-07-17T01:46:00;100993.77;;;10.21;82.15
47913;BME280;33676;51.006;17.180;2022-07-17T01:48:29;100996.03;;;10.21;82.18
47913;BME280;33676;51.006;17.180;2022-07-17T01:50:58;100994.95;;;10.22;82.29
47913;BME280;33676;51.006;17.180;2022-07-17T01:53:27;100993.86;;;10.23;82.34
47913;BME280;33676;51.006;17.180;2022-07-17T01:55:56;100988.45;;;10.23;82.29
47913;BME280;33676;51.006;17.180;2022-07-17T01:58:25;100988.26;;;10.23;82.29
47913;BME280;33676;51.006;17.180;2022-07-17T02:00:54;100990.18;;;10.22;82.30
47913;BME280;33676;51.006;17.180;2022-07-17T02:03:23;100988.78;;;10.23;82.27
47913;BME280;33676;51.006;17.180;2022-07-17T02:05:52;100989.16;;;10.22;82.29
47913;BME280;33676;51.006;17.180;2022-07-17T02:08:21;100991.98;;;10.22;82.42
47913;BME280;33676;51.006;17.180;2022-07-17T02:10:50;100991.13;;;10.22;82.43
47913;BME280;33676;51.006;17.180;2022-07-17T02:13:19;100994.70;;;10.23;82.64
47913;BME280;33676;51.006;17.180;2022-07-17T02:15:48;100996.80;;;10.26;82.53
47913;BME280;33676;51.006;17.180;2022-07-17T02:18:18;100999.48;;;10.27;82.68
47913;BME280;33676;51.006;17.180;2022-07-17T02:20:47;100998.65;;;10.29;82.61
47913;BME280;33676;51.006;17.180;2022-07-17T02:23:18;101001.02;;;10.31;82.51
47913;BME280;33676;51.006;17.180;2022-07-17T02:25:47;100999.72;;;10.32;82.64
47913;BME280;33676;51.006;17.180;2022-07-17T02:28:16;100997.77;;;10.32;82.65
47913;BME280;33676;51.006;17.180;2022-07-17T02:30:45;100998.98;;;10.32;82.65
47913;BME280;33676;51.006;17.180;2022-07-17T02:33:14;101002.05;;;10.34;82.74
47913;BME280;33676;51.006;17.180;2022-07-17T02:35:43;101005.33;;;10.34;82.76
47913;BME280;33676;51.006;17.180;2022-07-17T02:38:14;101010.18;;;10.35;82.73
47913;BME280;33676;51.006;17.180;2022-07-17T02:40:42;101011.05;;;10.35;82.63
47913;BME280;33676;51.006;17.180;2022-07-17T02:43:11;101008.01;;;10.33;82.62
47913;BME280;33676;51.006;17.180;2022-07-17T02:45:40;101009.41;;;10.33;82.59
47913;BME280;33676;51.006;17.180;2022-07-17T02:48:10;101010.48;;;10.33;82.70
47913;BME280;33676;51.006;17.180;2022-07-17T02:50:38;101010.80;;;10.34;82.70
47913;BME280;33676;51.006;17.180;2022-07-17T02:53:07;101008.73;;;10.36;82.85
47913;BME280;33676;51.006;17.180;2022-07-17T02:55:37;101010.91;;;10.37;82.84
47913;BME280;33676;51.006;17.180;2022-07-17T02:58:06;101011.38;;;10.38;82.79
47913;BME280;33676;51.006;17.180;2022-07-17T03:00:35;101009.45;;;10.38;82.92
47913;BME280;33676;51.006;17.180;2022-07-17T03:03:04;101006.63;;;10.39;82.82
47913;BME280;33676;51.006;17.180;2022-07-17T03:05:33;101011.95;;;10.39;82.89
47913;BME280;33676;51.006;17.180;2022-07-17T03:08:02;101013.17;;;10.40;82.83
47913;BME280;33676;51.006;17.180;2022-07-17T03:10:31;101015.45;;;10.40;82.87
47913;BME280;33676;51.006;17.180;2022-07-17T03:13:00;101013.86;;;10.40;82.86
47913;BME280;33676;51.006;17.180;2022-07-17T03:15:29;101019.91;;;10.40;82.83
47913;BME280;33676;51.006;17.180;2022-07-17T03:17:58;101016.05;;;10.41;82.76
47913;BME280;33676;51.006;17.180;2022-07-17T03:20:27;101018.34;;;10.41;82.87
47913;BME280;33676;51.006;17.180;2022-07-17T03:22:56;101023.45;;;10.40;82.88
47913;BME280;33676;51.006;17.180;2022-07-17T03:25:25;101017.98;;;10.41;82.88
47913;BME280;33676;51.006;17.180;2022-07-17T03:27:54;101018.36;;;10.40;82.86
47913;BME280;33676;51.006;17.180;2022-07-17T03:30:22;101019.15;;;10.42;82.96
47913;BME280;33676;51.006;17.180;2022-07-17T03:32:51;101021.48;;;10.43;83.02
47913;BME280;33676;51.006;17.180;2022-07-17T03:35:20;101021.83;;;10.46;83.02
47913;BME280;33676;51.006;17.180;2022-07-17T03:37:49;101023.55;;;10.49;83.12
47913;BME280;33676;51.006;17.180;2022-07-17T03:40:18;101022.88;;;10.51;83.13
47913;BME280;33676;51.006;17.180;2022-07-17T03:42:47;101028.42;;;10.54;83.17
47913;BME280;33676;51.006;17.180;2022-07-17T03:45:17;101025.61;;;10.58;83.12
47913;BME280;33676;51.006;17.180;2022-07-17T03:47:46;101030.26;;;10.61;83.16
47913;BME280;33676;51.006;17.180;2022-07-17T03:50:15;101030.58;;;10.65;83.20
47913;BME280;33676;51.006;17.180;2022-07-17T03:52:44;101034.53;;;10.68;83.18
47913;BME280;33676;51.006;17.180;2022-07-17T03:55:13;101039.13;;;10.73;83.25
47913;BME280;33676;51.006;17.180;2022-07-17T03:57:42;101042.95;;;10.76;83.22
47913;BME280;33676;51.006;17.180;2022-07-17T04:00:11;101043.77;;;10.79;83.25
47913;BME280;33676;51.006;17.180;2022-07-17T04:02:40;101044.63;;;10.82;83.19
47913;BME280;33676;51.006;17.180;2022-07-17T04:05:09;101048.15;;;10.84;83.09
47913;BME280;33676;51.006;17.180;2022-07-17T04:07:40;101048.89;;;10.86;83.19
47913;BME280;33676;51.006;17.180;2022-07-17T04:10:13;101043.67;;;10.88;83.32
47913;BME280;33676;51.006;17.180;2022-07-17T04:12:42;101044.45;;;10.92;83.47
47913;BME280;33676;51.006;17.180;2022-07-17T04:15:11;101050.08;;;10.97;83.56
47913;BME280;33676;51.006;17.180;2022-07-17T04:17:40;101049.48;;;11.01;83.67
47913;BME280;33676;51.006;17.180;2022-07-17T04:20:09;101050.98;;;11.04;83.67
47913;BME280;33676;51.006;17.180;2022-07-17T04:22:40;101054.98;;;11.10;83.87
47913;BME280;33676;51.006;17.180;2022-07-17T04:25:08;101054.07;;;11.15;84.03
47913;BME280;33676;51.006;17.180;2022-07-17T04:27:37;101056.60;;;11.22;84.14
47913;BME280;33676;51.006;17.180;2022-07-17T04:30:07;101058.23;;;11.29;84.29
47913;BME280;33676;51.006;17.180;2022-07-17T04:32:36;101054.31;;;11.35;84.36
47913;BME280;33676;51.006;17.180;2022-07-17T04:35:06;101053.66;;;11.42;84.46
47913;BME280;33676;51.006;17.180;2022-07-17T04:37:35;101057.50;;;11.49;84.38
47913;BME280;33676;51.006;17.180;2022-07-17T04:40:05;101058.25;;;11.56;84.42
47913;BME280;33676;51.006;17.180;2022-07-17T04:42:34;101059.66;;;11.64;84.52
47913;BME280;33676;51.006;17.180;2022-07-17T04:45:05;101063.16;;;11.71;84.62
47913;BME280;33676;51.006;17.180;2022-07-17T04:47:35;101064.16;;;11.80;84.67
47913;BME280;33676;51.006;17.180;2022-07-17T04:50:04;101068.59;;;11.89;84.75
47913;BME280;33676;51.006;17.180;2022-07-17T04:52:33;101065.70;;;11.97;84.89
47913;BME280;33676;51.006;17.180;2022-07-17T04:55:03;101070.29;;;12.07;84.84
47913;BME280;33676;51.006;17.180;2022-07-17T04:57:32;101071.98;;;12.17;84.93
47913;BME280;33676;51.006;17.180;2022-07-17T05:00:04;101077.96;;;12.29;85.08
47913;BME280;33676;51.006;17.180;2022-07-17T05:02:33;101081.19;;;12.40;84.90
47913;BME280;33676;51.006;17.180;2022-07-17T05:05:03;101086.89;;;12.53;84.75
47913;BME280;33676;51.006;17.180;2022-07-17T05:07:32;101082.50;;;12.65;84.69
47913;BME280;33676;51.006;17.180;2022-07-17T05:10:01;101086.29;;;12.78;84.49
47913;BME280;33676;51.006;17.180;2022-07-17T05:12:32;101094.02;;;12.92;84.31
47913;BME280;33676;51.006;17.180;2022-07-17T05:15:01;101101.55;;;13.03;84.16
47913;BME280;33676;51.006;17.180;2022-07-17T05:17:30;101101.90;;;13.15;83.98
47913;BME280;33676;51.006;17.180;2022-07-17T05:19:59;101107.34;;;13.27;83.76
47913;BME280;33676;51.006;17.180;2022-07-17T05:22:27;101115.97;;;13.38;83.48
47913;BME280;33676;51.006;17.180;2022-07-17T05:24:56;101114.80;;;13.49;83.23
47913;BME280;33676;51.006;17.180;2022-07-17T05:27:26;101119.06;;;13.59;83.09
47913;BME280;33676;51.006;17.180;2022-07-17T05:29:55;101115.46;;;13.69;82.95
47913;BME280;33676;51.006;17.180;2022-07-17T05:32:24;101116.58;;;13.80;82.56
47913;BME280;33676;51.006;17.180;2022-07-17T05:34:53;101116.73;;;13.89;82.41
47913;BME280;33676;51.006;17.180;2022-07-17T05:37:22;101119.45;;;14.00;82.22
47913;BME280;33676;51.006;17.180;2022-07-17T05:39:51;101115.45;;;14.09;81.90
47913;BME280;33676;51.006;17.180;2022-07-17T05:42:20;101121.92;;;14.19;81.64
47913;BME280;33676;51.006;17.180;2022-07-17T05:44:49;101122.13;;;14.27;81.41
47913;BME280;33676;51.006;17.180;2022-07-17T05:47:18;101120.49;;;14.35;81.29
47913;BME280;33676;51.006;17.180;2022-07-17T05:49:46;101122.71;;;14.42;81.20
47913;BME280;33676;51.006;17.180;2022-07-17T05:52:15;101128.45;;;14.51;81.02
47913;BME280;33676;51.006;17.180;2022-07-17T05:54:44;101130.34;;;14.61;81.12
47913;BME280;33676;51.006;17.180;2022-07-17T05:57:13;101131.95;;;14.69;80.82
47913;BME280;33676;51.006;17.180;2022-07-17T05:59:42;101131.81;;;14.77;80.67
47913;BME280;33676;51.006;17.180;2022-07-17T06:02:11;101129.98;;;14.86;80.79
47913;BME280;33676;51.006;17.180;2022-07-17T06:04:40;101136.88;;;14.97;80.59
47913;BME280;33676;51.006;17.180;2022-07-17T06:07:09;101140.03;;;15.05;80.54
47913;BME280;33676;51.006;17.180;2022-07-17T06:09:37;101136.94;;;15.15;80.21
47913;BME280;33676;51.006;17.180;2022-07-17T06:12:06;101137.48;;;15.21;79.91
47913;BME280;33676;51.006;17.180;2022-07-17T06:14:35;101137.34;;;15.27;80.16
47913;BME280;33676;51.006;17.180;2022-07-17T06:17:04;101137.96;;;15.34;79.73
47913;BME280;33676;51.006;17.180;2022-07-17T06:19:33;101141.91;;;15.42;79.63
47913;BME280;33676;51.006;17.180;2022-07-17T06:22:02;101147.89;;;15.48;79.59
47913;BME280;33676;51.006;17.180;2022-07-17T06:24:30;101150.11;;;15.55;79.21
47913;BME280;33676;51.006;17.180;2022-07-17T06:26:59;101152.73;;;15.64;79.53
47913;BME280;33676;51.006;17.180;2022-07-17T06:29:29;101149.58;;;15.74;79.38
47913;BME280;33676;51.006;17.180;2022-07-17T06:31:57;101150.30;;;15.83;79.21
47913;BME280;33676;51.006;17.180;2022-07-17T06:34:26;101149.09;;;15.92;78.95
47913;BME280;33676;51.006;17.180;2022-07-17T06:36:55;101155.20;;;16.01;78.75
47913;BME280;33676;51.006;17.180;2022-07-17T06:39:24;101154.79;;;16.09;78.34
47913;BME280;33676;51.006;17.180;2022-07-17T06:41:53;101154.28;;;16.15;78.04
47913;BME280;33676;51.006;17.180;2022-07-17T06:44:22;101153.91;;;16.21;77.59
47913;BME280;33676;51.006;17.180;2022-07-17T06:46:51;101153.29;;;16.26;77.20
47913;BME280;33676;51.006;17.180;2022-07-17T06:49:20;101143.94;;;16.28;77.00
47913;BME280;33676;51.006;17.180;2022-07-17T06:51:49;101149.23;;;16.34;77.09
47913;BME280;33676;51.006;17.180;2022-07-17T06:54:18;101148.38;;;16.41;76.85
47913;BME280;33676;51.006;17.180;2022-07-17T06:56:46;101149.45;;;16.47;76.67
47913;BME280;33676;51.006;17.180;2022-07-17T06:59:16;101150.14;;;16.54;76.29
47913;BME280;33676;51.006;17.180;2022-07-17T07:01:44;101144.22;;;16.61;76.16
47913;BME280;33676;51.006;17.180;2022-07-17T07:04:14;101150.52;;;16.69;76.04
47913;BME280;33676;51.006;17.180;2022-07-17T07:06:43;101150.91;;;16.76;76.20
47913;BME280;33676;51.006;17.180;2022-07-17T07:09:11;101153.06;;;16.86;75.95
47913;BME280;33676;51.006;17.180;2022-07-17T07:11:44;101161.32;;;16.92;75.50
47913;BME280;33676;51.006;17.180;2022-07-17T07:14:13;101161.95;;;16.97;75.02
47913;BME280;33676;51.006;17.180;2022-07-17T07:16:42;101160.60;;;17.02;75.00
47913;BME280;33676;51.006;17.180;2022-07-17T07:19:11;101161.67;;;17.10;74.97
47913;BME280;33676;51.006;17.180;2022-07-17T07:21:40;101165.27;;;17.18;74.91
47913;BME280;33676;51.006;17.180;2022-07-17T07:24:10;101157.92;;;17.27;74.46
47913;BME280;33676;51.006;17.180;2022-07-17T07:26:39;101159.39;;;17.34;74.20
47913;BME280;33676;51.006;17.180;2022-07-17T07:29:08;101157.46;;;17.40;74.13
47913;BME280;33676;51.006;17.180;2022-07-17T07:31:44;101154.95;;;17.48;74.08
47913;BME280;33676;51.006;17.180;2022-07-17T07:34:13;101158.73;;;17.57;73.76
47913;BME280;33676;51.006;17.180;2022-07-17T07:36:42;101161.81;;;17.64;73.53
47913;BME280;33676;51.006;17.180;2022-07-17T07:39:11;101162.31;;;17.69;73.52
47913;BME280;33676;51.006;17.180;2022-07-17T07:41:40;101158.48;;;17.78;73.24
47913;BME280;33676;51.006;17.180;2022-07-17T07:44:10;101163.09;;;17.87;73.02
47913;BME280;33676;51.006;17.180;2022-07-17T07:46:39;101160.80;;;17.99;72.96
47913;BME280;33676;51.006;17.180;2022-07-17T07:49:08;101159.47;;;18.08;72.38
47913;BME280;33676;51.006;17.180;2022-07-17T07:51:37;101167.27;;;18.16;72.13
47913;BME280;33676;51.006;17.180;2022-07-17T07:54:26;101164.30;;;18.26;72.33
47913;BME280;33676;51.006;17.180;2022-07-17T07:56:54;101164.94;;;18.36;72.09
47913;BME280;33676;51.006;17.180;2022-07-17T07:59:23;101165.20;;;18.42;71.63
47913;BME280;33676;51.006;17.180;2022-07-17T08:01:52;101165.04;;;18.48;71.68
47913;BME280;33676;51.006;17.180;2022-07-17T08:04:21;101166.62;;;18.61;71.50
47913;BME280;33676;51.006;17.180;2022-07-17T08:06:50;101163.14;;;18.76;71.48
47913;BME280;33676;51.006;17.180;2022-07-17T08:09:19;101169.43;;;18.95;71.33
47913;BME280;33676;51.006;17.180;2022-07-17T08:11:48;101169.33;;;19.12;71.00
47913;BME280;33676;51.006;17.180;2022-07-17T08:14:17;101173.14;;;19.25;70.65
47913;BME280;33676;51.006;17.180;2022-07-17T08:16:46;101170.42;;;19.34;70.51
47913;BME280;33676;51.006;17.180;2022-07-17T08:19:15;101174.88;;;19.43;69.95
47913;BME280;33676;51.006;17.180;2022-07-17T08:21:44;101175.34;;;19.49;69.40
47913;BME280;33676;51.006;17.180;2022-07-17T08:24:13;101176.18;;;19.53;68.95
47913;BME280;33676;51.006;17.180;2022-07-17T08:26:43;101169.52;;;19.61;68.52
47913;BME280;33676;51.006;17.180;2022-07-17T08:29:12;101172.69;;;19.71;68.43
47913;BME280;33676;51.006;17.180;2022-07-17T08:31:41;101176.27;;;19.78;68.04
47913;BME280;33676;51.006;17.180;2022-07-17T08:34:10;101177.51;;;19.79;67.97
47913;BME280;33676;51.006;17.180;2022-07-17T08:36:40;101181.46;;;19.84;67.78
47913;BME280;33676;51.006;17.180;2022-07-17T08:39:10;101177.48;;;19.85;67.26
47913;BME280;33676;51.006;17.180;2022-07-17T08:41:43;101175.34;;;19.85;67.02
47913;BME280;33676;51.006;17.180;2022-07-17T08:44:13;101177.94;;;19.80;67.00
47913;BME280;33676;51.006;17.180;2022-07-17T08:46:42;101181.33;;;19.80;66.95
47913;BME280;33676;51.006;17.180;2022-07-17T08:49:13;101178.13;;;19.89;66.73
47913;BME280;33676;51.006;17.180;2022-07-17T08:51:42;101190.50;;;20.05;65.59
47913;BME280;33676;51.006;17.180;2022-07-17T08:54:14;101192.05;;;20.07;65.12
47913;BME280;33676;51.006;17.180;2022-07-17T08:56:43;101195.14;;;20.07;64.52
47913;BME280;33676;51.006;17.180;2022-07-17T08:59:12;101197.90;;;20.06;64.62
47913;BME280;33676;51.006;17.180;2022-07-17T09:01:41;101198.95;;;20.09;64.33
47913;BME280;33676;51.006;17.180;2022-07-17T09:04:09;101195.73;;;20.11;64.24
47913;BME280;33676;51.006;17.180;2022-07-17T09:06:39;101194.03;;;20.12;64.33
47913;BME280;33676;51.006;17.180;2022-07-17T09:09:13;101190.34;;;20.20;65.12
47913;BME280;33676;51.006;17.180;2022-07-17T09:11:48;101193.98;;;20.39;65.06
47913;BME280;33676;51.006;17.180;2022-07-17T09:14:20;101201.27;;;20.43;64.48
47913;BME280;33676;51.006;17.180;2022-07-17T09:16:58;101202.83;;;20.40;63.87
47913;BME280;33676;51.006;17.180;2022-07-17T09:19:33;101198.98;;;20.46;63.62
47913;BME280;33676;51.006;17.180;2022-07-17T09:25:03;101191.92;;;20.82;62.93
47913;BME280;33676;51.006;17.180;2022-07-17T09:27:33;101194.46;;;21.07;62.37
47913;BME280;33676;51.006;17.180;2022-07-17T09:30:11;101198.00;;;21.15;61.72
47913;BME280;33676;51.006;17.180;2022-07-17T09:32:41;101198.73;;;21.20;61.46
47913;BME280;33676;51.006;17.180;2022-07-17T09:35:11;101200.05;;;21.21;61.26
47913;BME280;33676;51.006;17.180;2022-07-17T09:37:40;101197.70;;;21.16;61.30
47913;BME280;33676;51.006;17.180;2022-07-17T09:40:11;101200.04;;;21.21;61.16
47913;BME280;33676;51.006;17.180;2022-07-17T09:43:00;101196.70;;;21.27;61.12
47913;BME280;33676;51.006;17.180;2022-07-17T09:45:32;101189.84;;;21.48;61.26
47913;BME280;33676;51.006;17.180;2022-07-17T09:48:03;101183.52;;;21.68;60.90
47913;BME280;33676;51.006;17.180;2022-07-17T09:50:33;101183.55;;;21.82;60.95
47913;BME280;33676;51.006;17.180;2022-07-17T09:53:05;101187.48;;;21.89;60.61
47913;BME280;33676;51.006;17.180;2022-07-17T09:55:34;101184.71;;;21.92;60.31
47913;BME280;33676;51.006;17.180;2022-07-17T09:58:20;101189.66;;;21.91;60.11
47913;BME280;33676;51.006;17.180;2022-07-17T10:00:51;101184.04;;;21.95;59.59
47913;BME280;33676;51.006;17.180;2022-07-17T10:03:20;101186.20;;;22.07;59.17
47913;BME280;33676;51.006;17.180;2022-07-17T10:05:49;101182.36;;;22.21;58.78
47913;BME280;33676;51.006;17.180;2022-07-17T10:08:19;101183.48;;;22.36;58.89
47913;BME280;33676;51.006;17.180;2022-07-17T10:10:49;101178.91;;;22.38;58.81
47913;BME280;33676;51.006;17.180;2022-07-17T10:13:18;101189.19;;;22.33;58.44
47913;BME280;33676;51.006;17.180;2022-07-17T10:15:48;101182.86;;;22.29;58.49
47913;BME280;33676;51.006;17.180;2022-07-17T10:18:21;101182.85;;;22.32;57.92
47913;BME280;33676;51.006;17.180;2022-07-17T10:20:49;101178.27;;;22.32;57.87
47913;BME280;33676;51.006;17.180;2022-07-17T10:23:20;101171.97;;;22.40;58.28
47913;BME280;33676;51.006;17.180;2022-07-17T10:25:58;101178.30;;;22.44;57.52
47913;BME280;33676;51.006;17.180;2022-07-17T10:28:45;101174.89;;;22.42;57.23
47913;BME280;33676;51.006;17.180;2022-07-17T10:31:28;101169.84;;;22.44;57.24
47913;BME280;33676;51.006;17.180;2022-07-17T10:34:04;101169.05;;;22.48;57.70
47913;BME280;33676;51.006;17.180;2022-07-17T10:36:39;101170.14;;;22.65;57.64
47913;BME280;33676;51.006;17.180;2022-07-17T10:39:18;101168.92;;;22.83;58.02
47913;BME280;33676;51.006;17.180;2022-07-17T10:42:02;101170.81;;;23.08;57.85
47913;BME280;33676;51.006;17.180;2022-07-17T10:44:31;101180.00;;;23.28;57.23
47913;BME280;33676;51.006;17.180;2022-07-17T10:47:00;101176.96;;;23.41;57.26
47913;BME280;33676;51.006;17.180;2022-07-17T10:49:29;101173.80;;;23.59;57.15
47913;BME280;33676;51.006;17.180;2022-07-17T10:51:58;101169.27;;;23.83;57.26
47913;BME280;33676;51.006;17.180;2022-07-17T10:54:33;101170.98;;;24.00;56.25
47913;BME280;33676;51.006;17.180;2022-07-17T10:57:04;101165.11;;;24.14;56.56
47913;BME280;33676;51.006;17.180;2022-07-17T10:59:33;101170.04;;;24.36;56.10
47913;BME280;33676;51.006;17.180;2022-07-17T11:02:02;101171.05;;;24.45;54.79
47913;BME280;33676;51.006;17.180;2022-07-17T11:04:37;101165.69;;;24.53;55.09
47913;BME280;33676;51.006;17.180;2022-07-17T11:07:16;101161.36;;;24.77;55.10
47913;BME280;33676;51.006;17.180;2022-07-17T11:09:48;101157.48;;;24.99;54.88
47913;BME280;33676;51.006;17.180;2022-07-17T11:12:17;101156.94;;;25.16;54.58
47913;BME280;33676;51.006;17.180;2022-07-17T11:14:46;101159.45;;;25.29;54.23
47913;BME280;33676;51.006;17.180;2022-07-17T11:17:18;101158.23;;;25.32;53.47
47913;BME280;33676;51.006;17.180;2022-07-17T11:19:47;101158.06;;;25.44;54.05
47913;BME280;33676;51.006;17.180;2022-07-17T11:22:16;101160.38;;;25.65;53.20
47913;BME280;33676;51.006;17.180;2022-07-17T11:24:48;101157.96;;;25.63;52.29
47913;BME280;33676;51.006;17.180;2022-07-17T11:27:29;101151.65;;;25.64;52.62
47913;BME280;33676;51.006;17.180;2022-07-17T11:30:01;101149.64;;;25.69;52.69
47913;BME280;33676;51.006;17.180;2022-07-17T11:32:38;101153.25;;;25.73;52.37
47913;BME280;33676;51.006;17.180;2022-07-17T11:35:21;101149.95;;;25.73;52.09
47913;BME280;33676;51.006;17.180;2022-07-17T11:38:09;101148.85;;;25.82;52.50
47913;BME280;33676;51.006;17.180;2022-07-17T11:40:47;101151.67;;;26.03;52.84
47913;BME280;33676;51.006;17.180;2022-07-17T11:43:16;101151.45;;;26.16;52.16
47913;BME280;33676;51.006;17.180;2022-07-17T11:45:45;101154.91;;;26.13;51.34
47913;BME280;33676;51.006;17.180;2022-07-17T11:48:15;101153.52;;;26.16;51.39
47913;BME280;33676;51.006;17.180;2022-07-17T11:50:55;101147.92;;;26.15;51.23
47913;BME280;33676;51.006;17.180;2022-07-17T11:53:36;101158.58;;;26.02;50.86
47913;BME280;33676;51.006;17.180;2022-07-17T11:56:06;101149.52;;;25.92;51.08
47913;BME280;33676;51.006;17.180;2022-07-17T11:58:44;101142.85;;;26.00;51.62
47913;BME280;33676;51.006;17.180;2022-07-17T12:01:15;101134.65;;;26.33;51.60
47913;BME280;33676;51.006;17.180;2022-07-17T12:03:44;101135.31;;;26.82;52.49
47913;BME280;33676;51.006;17.180;2022-07-17T12:06:24;101141.45;;;27.37;51.68
47913;BME280;33676;51.006;17.180;2022-07-17T12:08:55;101142.23;;;27.60;50.95
47913;BME280;33676;51.006;17.180;2022-07-17T12:11:24;101144.01;;;27.76;50.83
47913;BME280;33676;51.006;17.180;2022-07-17T12:13:53;101137.48;;;27.97;50.83
47913;BME280;33676;51.006;17.180;2022-07-17T12:16:29;101146.61;;;28.05;49.92
47913;BME280;33676;51.006;17.180;2022-07-17T12:19:11;101140.27;;;27.84;49.12
47913;BME280;33676;51.006;17.180;2022-07-17T12:22:03;101137.03;;;27.79;49.58
47913;BME280;33676;51.006;17.180;2022-07-17T12:24:42;101133.13;;;27.98;49.43
47913;BME280;33676;51.006;17.180;2022-07-17T12:27:14;101139.61;;;28.05;48.36
47913;BME280;33676;51.006;17.180;2022-07-17T12:29:44;101136.02;;;28.03;48.08
47913;BME280;33676;51.006;17.180;2022-07-17T12:32:15;101139.69;;;28.11;48.16
47913;BME280;33676;51.006;17.180;2022-07-17T12:34:47;101141.71;;;28.30;48.12
47913;BME280;33676;51.006;17.180;2022-07-17T12:37:20;101133.42;;;28.46;48.14
47913;BME280;33676;51.006;17.180;2022-07-17T12:39:50;101130.13;;;28.67;48.46
47913;BME280;33676;51.006;17.180;2022-07-17T12:42:19;101128.35;;;28.86;47.66
47913;BME280;33676;51.006;17.180;2022-07-17T12:44:48;101127.79;;;28.97;47.59
47913;BME280;33676;51.006;17.180;2022-07-17T12:47:17;101131.26;;;29.17;47.31
47913;BME280;33676;51.006;17.180;2022-07-17T12:49:46;101130.79;;;29.39;47.34
47913;BME280;33676;51.006;17.180;2022-07-17T12:52:15;101143.66;;;29.59;46.59
47913;BME280;33676;51.006;17.180;2022-07-17T12:54:44;101132.58;;;29.58;46.74
47913;BME280;33676;51.006;17.180;2022-07-17T12:57:14;101133.77;;;29.73;46.85
47913;BME280;33676;51.006;17.180;2022-07-17T12:59:43;101122.23;;;29.83;46.59